Time;durP1;ratioP1;P1;durP2;ratioP2;P2;SDS_P1;SDS_P2;PMS_P1;PMS_P2;Temp;Humidity;BMP_temperature;BMP_pressure;BME280_temperature;BME280_humidity;BME280_pressure;Samples;Min_cycle;Max_cycle;Signal;HPM_P1;HPM_P2
2023/01/01 00:00:58;;;;;;;26.92;16.20;;;12.00;88.40;;;;;;5071928;28;20051;-75
2023/01/01 00:03:24;;;;;;;24.75;15.98;;;12.00;88.30;;;;;;5055255;28;20041;-74
2023/01/01 00:05:50;;;;;;;22.80;15.38;;;12.00;88.40;;;;;;5071522;28;20048;-76
2023/01/01 00:08:15;;;;;;;25.52;15.70;;;12.10;88.40;;;;;;5071614;28;20072;-75
2023/01/01 00:10:41;;;;;;;24.42;14.98;;;12.20;88.00;;;;;;5070805;28;20080;-74
2023/01/01 00:13:07;;;;;;;26.38;15.02;;;12.20;88.00;;;;;;5071841;28;20036;-74
2023/01/01 00:15:33;;;;;;;26.85;17.55;;;12.30;87.80;;;;;;5071738;28;20073;-74
2023/01/01 00:17:58;;;;;;;31.27;17.48;;;12.40;87.40;;;;;;5071777;28;20511;-75
2023/01/01 00:20:24;;;;;;;27.63;18.48;;;12.50;86.90;;;;;;5071681;28;20497;-73
2023/01/01 00:22:50;;;;;;;35.08;20.90;;;12.60;87.00;;;;;;5071803;28;20507;-73
2023/01/01 00:25:17;;;;;;;35.70;23.38;;;12.60;86.80;;;;;;5071442;28;20127;-75
2023/01/01 00:27:43;;;;;;;28.50;20.70;;;12.70;86.40;;;;;;5071582;28;20045;-76
2023/01/01 00:30:09;;;;;;;33.13;22.75;;;12.70;86.70;;;;;;5071382;28;20040;-76
2023/01/01 00:32:35;;;;;;;37.90;23.50;;;12.70;86.50;;;;;;5071724;28;20043;-74
2023/01/01 00:35:01;;;;;;;38.05;21.40;;;12.80;86.30;;;;;;5071554;28;20473;-74
2023/01/01 00:37:27;;;;;;;35.58;22.05;;;12.80;86.30;;;;;;5071908;28;20508;-74
2023/01/01 00:39:53;;;;;;;35.65;21.35;;;12.90;86.00;;;;;;5071336;28;20044;-75
2023/01/01 00:42:19;;;;;;;38.45;24.83;;;12.90;86.00;;;;;;5071343;28;20052;-74
2023/01/01 00:44:45;;;;;;;32.75;20.88;;;13.00;85.70;;;;;;5071247;28;20136;-75
2023/01/01 00:47:11;;;;;;;36.33;21.73;;;13.00;85.90;;;;;;5071439;28;20084;-75
2023/01/01 00:49:36;;;;;;;32.15;20.70;;;13.10;86.00;;;;;;5071250;28;20040;-74
2023/01/01 00:52:02;;;;;;;29.08;19.95;;;13.10;86.20;;;;;;5071531;28;20428;-75
2023/01/01 00:54:28;;;;;;;23.20;12.85;;;13.20;86.30;;;;;;5071456;28;20547;-76
2023/01/01 00:56:54;;;;;;;24.25;11.77;;;13.30;86.40;;;;;;5071372;28;20514;-73
2023/01/01 00:59:20;;;;;;;23.42;12.57;;;13.40;86.30;;;;;;5071203;28;20052;-73
2023/01/01 01:01:46;;;;;;;22.20;10.15;;;13.40;86.20;;;;;;5071172;28;20090;-73
2023/01/01 01:04:11;;;;;;;19.58;8.80;;;13.40;86.30;;;;;;5071040;28;20048;-73
2023/01/01 01:06:37;;;;;;;14.43;7.22;;;13.40;86.10;;;;;;5070935;28;20102;-76
2023/01/01 01:09:03;;;;;;;20.95;8.30;;;13.50;85.90;;;;;;5054708;28;20040;-76
2023/01/01 01:11:29;;;;;;;14.32;6.25;;;13.50;86.20;;;;;;5071343;28;20072;-74
2023/01/01 01:13:55;;;;;;;31.55;8.80;;;13.50;86.30;;;;;;5054252;28;20068;-76
2023/01/01 01:16:23;;;;;;;18.65;6.88;;;13.50;86.50;;;;;;5054316;28;20541;-73
2023/01/01 01:18:50;;;;;;;17.48;6.20;;;13.50;86.80;;;;;;5070994;28;20032;-76
2023/01/01 01:21:18;;;;;;;18.63;6.80;;;13.40;87.50;;;;;;5071026;28;20131;-74
2023/01/01 01:23:44;;;;;;;13.68;6.90;;;13.20;88.40;;;;;;5074891;28;20392;-74
2023/01/01 01:26:12;;;;;;;17.08;6.63;;;13.10;88.90;;;;;;5074766;28;20064;-77
2023/01/01 01:28:39;;;;;;;22.08;8.35;;;13.10;89.70;;;;;;5057794;28;20106;-74
2023/01/01 01:31:05;;;;;;;19.05;6.80;;;12.90;90.30;;;;;;5074478;28;20037;-75
2023/01/01 01:33:31;;;;;;;19.33;6.75;;;12.80;90.70;;;;;;5074430;28;20102;-74
2023/01/01 01:35:57;;;;;;;13.73;6.20;;;12.70;91.10;;;;;;5074572;28;20102;-78
2023/01/01 01:38:22;;;;;;;14.73;5.40;;;12.60;91.80;;;;;;5074344;28;20476;-75
2023/01/01 01:40:48;;;;;;;17.35;6.68;;;12.50;91.80;;;;;;5074764;28;20052;-74
2023/01/01 01:43:20;;;;;;;17.17;6.55;;;12.50;92.20;;;;;;5057555;28;20042;-78
2023/01/01 01:45:47;;;;;;;17.73;5.55;;;12.50;92.50;;;;;;5074138;28;20075;-75
2023/01/01 01:48:13;;;;;;;14.38;6.30;;;12.50;92.40;;;;;;5074190;28;20087;-75
2023/01/01 01:50:45;;;;;;;19.63;6.43;;;12.50;92.30;;;;;;5074129;28;20045;-76
2023/01/01 01:53:33;;;;;;;18.83;6.88;;;12.50;92.40;;;;;;5073973;28;20040;-77
2023/01/01 01:56:03;;;;;;;14.35;6.95;;;12.50;92.70;;;;;;5073962;28;20033;-74
2023/01/01 01:58:30;;;;;;;15.15;5.22;;;12.40;92.50;;;;;;5073883;28;20127;-76
2023/01/01 02:00:56;;;;;;;15.30;5.13;;;12.50;92.40;;;;;;5074235;28;20388;-75
2023/01/01 02:03:40;;;;;;;15.57;5.45;;;12.40;92.60;;;;;;5073854;28;20047;-77
2023/01/01 02:06:07;;;;;;;11.63;5.30;;;12.50;92.40;;;;;;5074061;28;20045;-75
2023/01/01 02:08:34;;;;;;;14.52;5.47;;;12.40;92.40;;;;;;5073780;28;20129;-73
2023/01/01 02:11:00;;;;;;;15.60;4.68;;;12.40;92.50;;;;;;5057367;28;20418;-74
2023/01/01 02:13:25;;;;;;;11.20;3.85;;;12.50;92.40;;;;;;5073691;28;20178;-76
2023/01/01 02:16:05;;;;;;;16.80;4.68;;;12.40;92.50;;;;;;5073685;28;20044;-75
2023/01/01 02:18:41;;;;;;;15.07;5.68;;;12.40;92.40;;;;;;5056924;28;20051;-74
2023/01/01 02:21:13;;;;;;;16.30;4.78;;;12.40;92.70;;;;;;5073367;28;20072;-75
2023/01/01 02:24:19;;;;;;;14.73;4.43;;;12.40;92.70;;;;;;5073769;28;20396;-75
2023/01/01 02:27:12;;;;;;;14.18;4.55;;;12.40;93.10;;;;;;5073378;28;20040;-77
2023/01/01 02:30:05;;;;;;;13.35;4.40;;;12.20;93.50;;;;;;5073392;28;20037;-74
2023/01/01 02:32:40;;;;;;;19.73;5.95;;;12.20;93.50;;;;;;5071366;28;20127;-76
2023/01/01 02:35:33;;;;;;;10.93;5.38;;;12.00;93.60;;;;;;5072533;28;20045;-76
2023/01/01 02:38:09;;;;;;;15.48;5.07;;;12.10;93.80;;;;;;5073194;28;20048;-77
2023/01/01 02:40:43;;;;;;;14.30;4.90;;;12.00;93.90;;;;;;5073138;28;20514;-77
2023/01/01 02:43:08;;;;;;;11.30;4.60;;;12.10;93.60;;;;;;5073180;28;20048;-75
2023/01/01 02:45:34;;;;;;;13.43;4.40;;;12.10;93.70;;;;;;5056611;28;20040;-77
2023/01/01 02:48:41;;;;;;;11.63;4.28;;;12.10;93.30;;;;;;5072893;28;20508;-76
2023/01/01 02:51:22;;;;;;;16.52;4.43;;;12.20;93.10;;;;;;5073281;28;20399;-76
2023/01/01 02:54:18;;;;;;;14.57;4.45;;;12.20;93.00;;;;;;5073160;28;20408;-75
2023/01/01 02:57:08;;;;;;;12.50;4.78;;;12.10;93.00;;;;;;5073053;28;20404;-76
2023/01/01 03:03:17;;;;;;;13.77;3.85;;;12.20;92.40;;;;;;5072705;28;20504;-77
2023/01/01 03:06:22;;;;;;;12.27;5.30;;;12.20;92.60;;;;;;5072881;28;20047;-77
2023/01/01 03:09:06;;;;;;;9.68;3.75;;;12.30;92.60;;;;;;5072592;28;20036;-76
2023/01/01 03:12:13;;;;;;;15.75;3.40;;;12.20;92.90;;;;;;5072803;28;20044;-75
2023/01/01 03:14:43;;;;;;;16.00;4.88;;;12.20;93.00;;;;;;5056059;28;20141;-73
2023/01/01 03:17:12;;;;;;;14.63;4.30;;;12.10;93.20;;;;;;5072730;28;20570;-76
2023/01/01 03:19:41;;;;;;;20.83;5.78;;;12.00;93.50;;;;;;5055972;28;20583;-75
2023/01/01 03:22:13;;;;;;;11.85;3.88;;;12.00;93.60;;;;;;5072213;28;20057;-76
2023/01/01 03:24:45;;;;;;;21.05;6.82;;;12.00;93.30;;;;;;5072301;28;20059;-75
2023/01/01 03:27:26;;;;;;;17.90;5.85;;;12.00;93.20;;;;;;5072217;28;20083;-74
2023/01/01 03:29:54;;;;;;;14.70;5.20;;;11.90;93.20;;;;;;5072255;28;20041;-75
2023/01/01 03:32:59;;;;;;;13.50;4.53;;;12.00;93.20;;;;;;5072136;28;20506;-74
2023/01/01 03:35:12;;;;;;;14.30;4.53;;;12.00;93.20;;;;;;5071843;28;20040;-74
2023/01/01 03:37:40;;;;;;;16.33;4.40;;;12.00;92.70;;;;;;5055486;28;20044;-73
2023/01/01 03:40:07;;;;;;;9.68;3.38;;;12.00;92.70;;;;;;5072265;28;20053;-75
2023/01/01 03:42:46;;;;;;;15.63;3.70;;;12.00;92.50;;;;;;5055733;28;20055;-73
2023/01/01 03:45:19;;;;;;;16.08;4.75;;;12.00;92.50;;;;;;5071902;28;20044;-76
2023/01/01 03:47:45;;;;;;;15.15;4.38;;;12.00;92.30;;;;;;5071920;28;20047;-73
2023/01/01 03:50:13;;;;;;;16.25;4.35;;;12.00;92.20;;;;;;5071906;28;20036;-74
2023/01/01 03:52:56;;;;;;;19.45;5.63;;;12.00;92.30;;;;;;5071919;28;20544;-73
2023/01/01 03:55:28;;;;;;;13.87;3.83;;;12.00;92.30;;;;;;5071816;28;20051;-76
2023/01/01 03:58:30;;;;;;;15.55;5.63;;;11.90;92.70;;;;;;5071808;28;20369;-74
2023/01/01 04:01:23;;;;;;;13.32;5.43;;;12.00;92.30;;;;;;5071799;28;20507;-75
2023/01/01 04:03:49;;;;;;;17.45;5.05;;;11.90;92.60;;;;;;5071771;28;20052;-74
2023/01/01 04:06:15;;;;;;;20.42;5.70;;;11.80;92.70;;;;;;5071640;28;20044;-76
2023/01/01 04:08:41;;;;;;;18.52;4.88;;;11.80;92.60;;;;;;5038382;28;20047;-74
2023/01/01 04:13:58;;;;;;;14.25;3.90;;;11.70;93.10;;;;;;5071607;28;20047;-75
2023/01/01 04:16:24;;;;;;;17.02;4.43;;;11.70;93.10;;;;;;5071553;28;20045;-76
2023/01/01 04:18:50;;;;;;;10.73;4.15;;;11.80;93.10;;;;;;5071847;28;20119;-75
2023/01/01 04:21:15;;;;;;;19.02;4.68;;;11.70;93.40;;;;;;5054812;28;20506;-76
2023/01/01 04:23:41;;;;;;;11.65;3.95;;;11.70;93.40;;;;;;5071437;28;20580;-75
2023/01/01 04:26:13;;;;;;;13.38;3.75;;;11.70;93.50;;;;;;5055262;28;20079;-73
2023/01/01 04:28:40;;;;;;;12.85;4.00;;;11.70;93.60;;;;;;5071453;28;20037;-74
2023/01/01 04:31:06;;;;;;;13.90;4.18;;;11.70;93.60;;;;;;5071686;28;20036;-75
2023/01/01 04:33:32;;;;;;;19.45;5.32;;;11.80;93.40;;;;;;5071753;28;20132;-74
2023/01/01 04:36:06;;;;;;;18.52;5.45;;;11.80;93.20;;;;;;5054704;28;20528;-74
2023/01/01 04:38:33;;;;;;;21.90;7.28;;;11.80;93.10;;;;;;5071466;28;20051;-75
2023/01/01 04:41:00;;;;;;;16.67;5.18;;;11.70;92.70;;;;;;5054870;28;20045;-75
2023/01/01 04:43:27;;;;;;;21.08;4.70;;;11.70;92.70;;;;;;5071613;28;20051;-74
2023/01/01 04:46:00;;;;;;;16.42;5.45;;;11.70;92.40;;;;;;5071255;28;20045;-75
2023/01/01 04:48:27;;;;;;;18.13;5.32;;;11.70;92.40;;;;;;5071277;28;20043;-75
2023/01/01 04:50:55;;;;;;;18.50;4.78;;;11.70;92.30;;;;;;5071279;28;20492;-76
2023/01/01 04:53:21;;;;;;;22.35;6.38;;;11.70;92.00;;;;;;5054853;28;20439;-73
2023/01/01 04:55:47;;;;;;;32.28;5.95;;;11.70;92.00;;;;;;5054489;28;20127;-75
2023/01/01 04:58:12;;;;;;;24.80;6.10;;;11.70;92.10;;;;;;5074358;28;20051;-74
2023/01/01 05:00:38;;;;;;;21.42;4.32;;;11.60;92.30;;;;;;5075106;28;20040;-75
2023/01/01 05:03:04;;;;;;;18.08;6.30;;;11.60;92.30;;;;;;5075291;28;20066;-76
2023/01/01 05:05:29;;;;;;;16.55;4.43;;;11.60;92.10;;;;;;5075203;28;20519;-74
2023/01/01 05:07:55;;;;;;;20.63;5.38;;;11.70;92.00;;;;;;5075018;28;20562;-74
2023/01/01 05:10:21;;;;;;;18.08;5.30;;;11.70;91.90;;;;;;5058166;28;20561;-76
2023/01/01 05:12:47;;;;;;;18.55;4.25;;;11.60;92.10;;;;;;5074852;28;20080;-75
2023/01/01 05:15:12;;;;;;;17.33;5.07;;;11.70;92.00;;;;;;5058043;28;20036;-74
2023/01/01 05:17:38;;;;;;;16.75;4.93;;;11.70;91.70;;;;;;5058178;28;20048;-73
2023/01/01 05:20:04;;;;;;;17.77;4.53;;;11.70;91.60;;;;;;5058059;28;20040;-74
2023/01/01 05:22:29;;;;;;;21.05;4.65;;;11.70;91.50;;;;;;5057946;28;20096;-74
2023/01/01 05:24:55;;;;;;;16.48;4.72;;;11.70;91.50;;;;;;5074491;28;20079;-76
2023/01/01 05:27:21;;;;;;;13.70;4.88;;;11.70;91.10;;;;;;5074484;28;20051;-75
2023/01/01 05:29:46;;;;;;;16.05;3.80;;;11.70;91.20;;;;;;5074782;28;20127;-74
2023/01/01 05:32:12;;;;;;;19.42;5.35;;;11.60;91.10;;;;;;5074449;28;20032;-75
2023/01/01 05:34:38;;;;;;;13.43;4.30;;;11.50;91.10;;;;;;5074395;28;20048;-75
2023/01/01 05:37:03;;;;;;;17.00;5.18;;;11.60;90.80;;;;;;5074413;28;20514;-74
2023/01/01 05:39:29;;;;;;;11.90;4.15;;;11.50;90.50;;;;;;5041078;28;20044;-75
2023/01/01 05:41:55;;;;;;;12.27;3.65;;;11.50;90.40;;;;;;5074541;28;20123;-75
2023/01/01 05:44:20;;;;;;;17.00;3.58;;;11.50;90.60;;;;;;5074449;28;20040;-73
2023/01/01 05:46:46;;;;;;;13.27;4.30;;;11.50;90.20;;;;;;5074198;28;20044;-73
2023/01/01 05:49:12;;;;;;;20.60;4.78;;;11.40;90.00;;;;;;5074150;28;20039;-72
2023/01/01 05:51:38;;;;;;;16.38;3.33;;;11.40;90.20;;;;;;5074131;28;20036;-74
2023/01/01 05:54:03;;;;;;;14.48;4.30;;;11.30;90.00;;;;;;5074332;28;20036;-75
2023/01/01 05:56:29;;;;;;;19.30;3.88;;;11.20;90.30;;;;;;5073980;28;20036;-75
2023/01/01 05:58:55;;;;;;;13.93;3.88;;;11.20;90.20;;;;;;5074060;28;20094;-74
2023/01/01 06:01:24;;;;;;;14.30;3.28;;;11.20;90.10;;;;;;5073937;28;20504;-75
2023/01/01 06:03:52;;;;;;;14.30;4.22;;;11.20;90.10;;;;;;5073922;28;20047;-74
2023/01/01 06:06:21;;;;;;;16.75;3.90;;;11.10;90.20;;;;;;5073833;28;20044;-73
2023/01/01 06:08:51;;;;;;;16.20;3.25;;;11.10;90.30;;;;;;5072653;28;20392;-73
2023/01/01 06:11:17;;;;;;;10.57;3.17;;;11.10;90.00;;;;;;5074041;28;20040;-73
2023/01/01 06:13:43;;;;;;;18.80;3.90;;;11.10;90.20;;;;;;5057286;28;20090;-73
2023/01/01 06:16:09;;;;;;;14.00;3.30;;;11.00;90.10;;;;;;5073647;28;20068;-72
2023/01/01 06:18:35;;;;;;;15.48;3.25;;;11.00;89.90;;;;;;5073581;28;20512;-74
2023/01/01 06:21:16;;;;;;;15.63;4.20;;;11.00;89.90;;;;;;5073740;28;20040;-71
2023/01/01 06:23:42;;;;;;;17.38;3.55;;;11.00;89.80;;;;;;5073387;28;20048;-73
2023/01/01 06:26:11;;;;;;;16.58;3.35;;;11.00;89.80;;;;;;5073428;28;20048;-71
2023/01/01 06:28:38;;;;;;;11.70;3.15;;;11.00;89.60;;;;;;5073408;28;20059;-72
2023/01/01 06:31:05;;;;;;;19.27;4.40;;;11.00;89.70;;;;;;5073287;28;20481;-71
2023/01/01 06:33:31;;;;;;;11.27;2.80;;;11.00;89.60;;;;;;5056603;28;20045;-71
2023/01/01 06:35:58;;;;;;;18.25;3.92;;;10.90;89.70;;;;;;5073757;28;20040;-72
2023/01/01 06:38:23;;;;;;;20.00;3.85;;;10.90;89.70;;;;;;5073225;28;20051;-73
2023/01/01 06:41:00;;;;;;;19.83;3.58;;;10.90;89.60;;;;;;5073152;28;20044;-75
2023/01/01 06:43:28;;;;;;;23.17;4.35;;;10.90;89.80;;;;;;5073166;28;20052;-76
2023/01/01 06:46:14;;;;;;;21.48;4.00;;;10.90;89.50;;;;;;5072976;28;20052;-73
2023/01/01 06:48:40;;;;;;;18.80;4.05;;;10.90;89.70;;;;;;5072884;28;20476;-71
2023/01/01 06:51:09;;;;;;;15.90;3.47;;;10.90;89.80;;;;;;5072981;28;20115;-75
2023/01/01 06:53:35;;;;;;;18.48;3.80;;;10.90;89.80;;;;;;5072936;28;20043;-71
2023/01/01 06:56:01;;;;;;;22.67;4.80;;;10.90;89.70;;;;;;5072821;28;20044;-71
2023/01/01 06:58:27;;;;;;;21.63;4.15;;;10.80;90.10;;;;;;5072810;28;20040;-74
2023/01/01 07:00:53;;;;;;;25.58;4.20;;;10.90;89.90;;;;;;5072792;28;20090;-72
2023/01/01 07:03:19;;;;;;;21.48;4.20;;;10.80;90.10;;;;;;5072693;28;20056;-73
2023/01/01 07:05:44;;;;;;;16.40;4.03;;;10.80;90.30;;;;;;5072620;28;20080;-72
2023/01/01 07:08:10;;;;;;;18.88;4.45;;;10.80;90.10;;;;;;5072493;28;20408;-71
2023/01/01 07:10:36;;;;;;;22.10;4.65;;;10.80;90.00;;;;;;5072886;28;20045;-73
2023/01/01 07:13:01;;;;;;;27.02;4.32;;;10.80;90.20;;;;;;5072517;28;20039;-72
2023/01/01 07:15:27;;;;;;;23.95;3.90;;;10.80;90.20;;;;;;5065890;28;20041;-71
2023/01/01 07:17:53;;;;;;;22.67;4.93;;;10.80;90.30;;;;;;5062806;28;20037;-72
2023/01/01 07:20:18;;;;;;;22.08;5.07;;;10.80;90.00;;;;;;5061589;28;20052;-72
2023/01/01 07:22:45;;;;;;;21.63;3.78;;;10.80;90.20;;;;;;5060975;28;20088;-73
2023/01/01 07:25:13;;;;;;;22.85;4.38;;;10.70;90.30;;;;;;5061939;28;20118;-73
2023/01/01 07:27:39;;;;;;;24.30;5.03;;;10.70;90.40;;;;;;5061384;28;20048;-72
2023/01/01 07:30:05;;;;;;;25.13;4.78;;;10.70;90.20;;;;;;5062787;28;20044;-73
2023/01/01 07:32:31;;;;;;;21.42;4.43;;;10.60;90.40;;;;;;5052377;28;20052;-74
2023/01/01 07:34:57;;;;;;;22.73;4.80;;;10.60;90.40;;;;;;5035542;28;20037;-72
2023/01/01 07:37:25;;;;;;;21.05;4.28;;;10.70;90.20;;;;;;5052126;28;20049;-72
2023/01/01 07:39:53;;;;;;;29.33;4.65;;;10.70;90.20;;;;;;5062914;28;20051;-75
2023/01/01 07:42:19;;;;;;;19.45;4.65;;;10.60;90.30;;;;;;5061619;28;20397;-74
2023/01/01 07:44:45;;;;;;;26.83;5.95;;;10.60;90.20;;;;;;5062779;28;20141;-75
2023/01/01 07:47:22;;;;;;;25.60;5.80;;;10.60;90.00;;;;;;5071872;28;20048;-72
2023/01/01 07:49:48;;;;;;;19.40;4.32;;;10.50;90.30;;;;;;5071931;28;20044;-70
2023/01/01 07:52:13;;;;;;;23.10;4.82;;;10.60;90.10;;;;;;5068364;28;20048;-72
2023/01/01 07:54:39;;;;;;;21.05;3.85;;;10.60;89.80;;;;;;5062484;28;20043;-71
2023/01/01 07:57:05;;;;;;;22.48;4.20;;;10.60;89.90;;;;;;5051562;28;20512;-74
2023/01/01 07:59:30;;;;;;;24.92;4.93;;;10.60;89.90;;;;;;5051945;28;20449;-71
2023/01/01 08:01:57;;;;;;;24.17;5.05;;;10.60;89.90;;;;;;5051679;28;20146;-72
2023/01/01 08:04:25;;;;;;;25.35;5.00;;;10.60;89.70;;;;;;5051590;28;20045;-72
2023/01/01 08:06:51;;;;;;;22.02;4.35;;;10.60;89.80;;;;;;5051395;28;20049;-72
2023/01/01 08:09:17;;;;;;;22.35;5.03;;;10.60;90.00;;;;;;5035064;28;20040;-71
2023/01/01 08:11:43;;;;;;;17.85;4.70;;;10.60;89.80;;;;;;5051563;28;20504;-73
2023/01/01 08:14:08;;;;;;;16.45;3.38;;;10.60;90.10;;;;;;5051880;28;20051;-73
2023/01/01 08:16:34;;;;;;;25.95;4.85;;;10.70;90.40;;;;;;5051527;28;20482;-73
2023/01/01 08:19:00;;;;;;;28.25;5.55;;;10.60;90.50;;;;;;5051588;28;20455;-72
2023/01/01 08:21:25;;;;;;;20.10;5.93;;;10.60;90.90;;;;;;5051805;28;20116;-71
2023/01/01 08:23:51;;;;;;;19.55;4.45;;;10.60;90.90;;;;;;5051494;28;20548;-72
2023/01/01 08:26:25;;;;;;;23.80;5.32;;;10.70;91.10;;;;;;5051383;28;20507;-74
2023/01/01 08:28:51;;;;;;;32.40;7.25;;;10.60;91.00;;;;;;5051352;28;20044;-71
2023/01/01 08:31:17;;;;;;;22.65;5.68;;;10.60;91.30;;;;;;5051471;28;20037;-73
2023/01/01 08:33:42;;;;;;;29.52;6.40;;;10.60;91.30;;;;;;5055575;28;20036;-72
2023/01/01 08:36:11;;;;;;;23.85;5.07;;;10.60;91.50;;;;;;5055822;28;20029;-73
2023/01/01 08:38:37;;;;;;;25.98;4.88;;;10.60;91.50;;;;;;5055455;28;20048;-73
2023/01/01 08:41:03;;;;;;;28.65;5.78;;;10.60;91.60;;;;;;5039088;28;20056;-73
2023/01/01 08:43:28;;;;;;;24.13;5.28;;;10.60;91.30;;;;;;5063342;28;20044;-72
2023/01/01 08:45:54;;;;;;;28.35;6.32;;;10.60;91.30;;;;;;5060496;28;20072;-72
2023/01/01 08:48:20;;;;;;;29.17;5.80;;;10.60;91.30;;;;;;5055277;28;20041;-72
2023/01/01 08:50:55;;;;;;;34.50;7.15;;;10.50;91.40;;;;;;5055305;28;20037;-72
2023/01/01 08:53:21;;;;;;;22.00;5.60;;;10.60;91.20;;;;;;5055491;28;20414;-73
2023/01/01 08:56:05;;;;;;;29.52;6.10;;;10.50;91.50;;;;;;5055154;28;20041;-72
2023/01/01 08:58:32;;;;;;;29.65;6.40;;;10.50;91.70;;;;;;5055199;28;20535;-73
2023/01/01 09:01:00;;;;;;;27.38;6.63;;;10.50;91.70;;;;;;5055339;28;20397;-72
2023/01/01 09:03:26;;;;;;;29.23;6.20;;;10.50;91.60;;;;;;5055306;28;20072;-73
2023/01/01 09:05:53;;;;;;;27.73;6.70;;;10.50;91.40;;;;;;5055253;28;20033;-73
2023/01/01 09:08:19;;;;;;;25.58;5.78;;;10.50;91.40;;;;;;5054920;28;20049;-72
2023/01/01 09:10:45;;;;;;;29.25;5.72;;;10.60;91.40;;;;;;5054857;28;20103;-73
2023/01/01 09:13:12;;;;;;;22.48;4.50;;;10.60;91.20;;;;;;5055111;28;20049;-72
2023/01/01 09:15:39;;;;;;;26.80;5.97;;;10.60;91.20;;;;;;5054840;28;20033;-73
2023/01/01 09:18:05;;;;;;;22.92;6.07;;;10.60;91.00;;;;;;5055101;28;20076;-75
2023/01/01 09:20:30;;;;;;;32.33;5.57;;;10.50;91.20;;;;;;5054860;28;20519;-73
2023/01/01 09:22:56;;;;;;;24.30;5.53;;;10.60;91.10;;;;;;5054488;28;20059;-73
2023/01/01 09:25:22;;;;;;;36.17;8.85;;;10.50;91.10;;;;;;5054722;28;20135;-73
2023/01/01 09:27:48;;;;;;;27.02;6.70;;;10.50;91.10;;;;;;5054727;28;20045;-73
2023/01/01 09:30:14;;;;;;;30.73;6.05;;;10.50;91.40;;;;;;5054581;28;20101;-73
2023/01/01 09:32:39;;;;;;;29.75;5.65;;;10.50;91.30;;;;;;5054483;28;20508;-73
2023/01/01 09:35:05;;;;;;;30.80;10.02;;;10.50;91.40;;;;;;5054432;28;20045;-72
2023/01/01 09:37:33;;;;;;;28.75;7.50;;;10.50;91.40;;;;;;5054406;28;20044;-72
2023/01/01 09:39:58;;;;;;;28.50;5.85;;;10.50;91.30;;;;;;5054360;28;20087;-74
2023/01/01 09:42:48;;;;;;;31.58;6.90;;;10.60;91.30;;;;;;5054130;28;20076;-73
2023/01/01 09:45:14;;;;;;;38.38;7.38;;;10.60;91.30;;;;;;5054293;28;20128;-73
2023/01/01 09:47:54;;;;;;;34.60;6.85;;;10.60;91.30;;;;;;5054348;28;20106;-72
2023/01/01 09:50:23;;;;;;;32.95;7.80;;;10.60;91.30;;;;;;5054471;28;20033;-72
2023/01/01 09:52:59;;;;;;;37.25;8.95;;;10.60;91.20;;;;;;5054338;28;20045;-72
2023/01/01 09:55:55;;;;;;;59.25;26.73;;;10.60;91.40;;;;;;5054099;28;20045;-73
2023/01/01 09:58:25;;;;;;;29.40;6.15;;;10.70;91.20;;;;;;5054239;28;20196;-73
2023/01/01 10:00:54;;;;;;;47.13;17.13;;;10.70;91.00;;;;;;5053954;28;20528;-73
2023/01/01 10:03:19;;;;;;;90.50;33.35;;;10.80;90.80;;;;;;5053909;28;20041;-74
2023/01/01 10:06:11;;;;;;;46.53;11.93;;;10.80;90.90;;;;;;5054164;28;20044;-74
2023/01/01 10:08:51;;;;;;;48.38;13.75;;;10.80;90.60;;;;;;5053878;28;20052;-71
2023/01/01 10:11:37;;;;;;;52.90;18.27;;;10.90;90.70;;;;;;5053775;28;20076;-74
2023/01/01 10:14:13;;;;;;;36.72;10.15;;;10.90;90.60;;;;;;5053745;28;20119;-73
2023/01/01 10:16:44;;;;;;;31.48;9.90;;;10.90;90.60;;;;;;5053593;28;20075;-72
2023/01/01 10:19:37;;;;;;;52.72;17.42;;;11.00;90.60;;;;;;5053966;28;20045;-71
2023/01/01 10:22:27;;;;;;;37.17;9.93;;;10.90;90.50;;;;;;5053428;28;20060;-75
2023/01/01 10:25:00;;;;;;;67.68;23.05;;;10.90;90.30;;;;;;5053436;28;20080;-73
2023/01/01 10:27:57;;;;;;;27.10;5.90;;;10.90;90.50;;;;;;5053473;28;20099;-72
2023/01/01 10:30:23;;;;;;;37.63;13.57;;;10.90;90.20;;;;;;5053733;28;20032;-72
2023/01/01 10:32:52;;;;;;;39.03;9.82;;;11.00;90.20;;;;;;5053295;28;20095;-72
2023/01/01 10:35:29;;;;;;;35.85;13.70;;;10.90;90.10;;;;;;5053293;28;20072;-72
2023/01/01 10:37:56;;;;;;;30.50;6.82;;;11.00;89.90;;;;;;5053626;28;20040;-73
2023/01/01 10:40:25;;;;;;;21.77;5.45;;;10.90;89.90;;;;;;5053233;28;20045;-74
2023/01/01 10:42:56;;;;;;;24.23;6.43;;;10.90;89.80;;;;;;5053234;28;20049;-71
2023/01/01 10:45:47;;;;;;;19.58;5.82;;;10.90;89.50;;;;;;5053423;28;20389;-72
2023/01/01 10:48:17;;;;;;;21.38;6.82;;;11.00;89.50;;;;;;5053060;28;20051;-73
2023/01/01 10:50:47;;;;;;;20.23;4.57;;;11.00;89.50;;;;;;5053003;28;20037;-73
2023/01/01 10:53:36;;;;;;;23.40;4.93;;;11.00;89.40;;;;;;5053027;28;20053;-74
2023/01/01 10:56:14;;;;;;;26.92;5.97;;;11.00;89.30;;;;;;5052652;28;20079;-74
2023/01/01 10:58:43;;;;;;;23.88;5.70;;;11.00;89.20;;;;;;5053245;28;20165;-72
2023/01/01 11:01:17;;;;;;;16.80;5.43;;;11.00;88.90;;;;;;5052768;28;20037;-72
2023/01/01 11:04:12;;;;;;;20.52;5.32;;;11.10;88.90;;;;;;5052884;28;20045;-73
2023/01/01 11:06:40;;;;;;;18.73;5.18;;;11.10;89.00;;;;;;5052294;28;20052;-72
2023/01/01 11:09:20;;;;;;;22.27;5.05;;;11.10;88.90;;;;;;5052656;28;20076;-72
2023/01/01 11:11:53;;;;;;;16.92;4.05;;;11.20;88.60;;;;;;5052897;28;20409;-73
2023/01/01 11:14:41;;;;;;;26.38;4.80;;;11.20;88.30;;;;;;5052644;28;20128;-73
2023/01/01 11:17:08;;;;;;;23.63;4.85;;;11.20;88.00;;;;;;5052738;28;20064;-74
2023/01/01 11:19:40;;;;;;;19.83;4.10;;;11.20;88.10;;;;;;5052499;28;20052;-75
2023/01/01 11:22:06;;;;;;;14.48;3.83;;;11.10;87.70;;;;;;5052142;28;20045;-73
2023/01/01 11:24:33;;;;;;;28.85;6.22;;;11.10;88.00;;;;;;5052771;28;20057;-73
2023/01/01 11:27:21;;;;;;;20.67;3.97;;;11.10;88.10;;;;;;5052495;28;20366;-74
2023/01/01 11:29:50;;;;;;;36.67;12.90;;;11.10;88.00;;;;;;5052248;28;20041;-73
2023/01/01 11:32:22;;;;;;;32.90;12.68;;;11.10;88.00;;;;;;5052181;28;20086;-74
2023/01/01 11:34:59;;;;;;;17.45;4.30;;;11.10;88.20;;;;;;5052262;28;20120;-72
2023/01/01 11:37:37;;;;;;;23.25;5.15;;;11.00;88.10;;;;;;5052452;28;20053;-75
2023/01/01 11:40:05;;;;;;;51.83;17.33;;;11.00;88.30;;;;;;5052135;28;20055;-75
2023/01/01 11:42:34;;;;;;;60.70;23.30;;;11.00;88.30;;;;;;5051947;28;20562;-75
2023/01/01 11:45:05;;;;;;;28.70;6.95;;;11.10;88.30;;;;;;5052018;28;20045;-74
2023/01/01 11:47:36;;;;;;;45.70;19.98;;;11.10;88.40;;;;;;5052208;28;20405;-73
2023/01/01 11:50:27;;;;;;;31.45;8.80;;;11.10;88.40;;;;;;5052263;28;20059;-74
2023/01/01 11:52:57;;;;;;;25.02;6.47;;;11.20;88.50;;;;;;5052175;28;20477;-73
2023/01/01 11:55:46;;;;;;;19.33;4.30;;;11.20;88.60;;;;;;5051879;28;20528;-75
2023/01/01 11:58:30;;;;;;;20.98;4.63;;;11.30;88.10;;;;;;5035527;28;20397;-75
2023/01/01 12:01:01;;;;;;;17.75;4.85;;;11.30;88.10;;;;;;5052019;28;20080;-74
2023/01/01 12:03:36;;;;;;;46.08;12.30;;;11.30;88.30;;;;;;5051814;28;20534;-74
2023/01/01 12:06:30;;;;;;;32.28;9.50;;;11.30;88.30;;;;;;5051356;28;20041;-73
2023/01/01 12:09:32;;;;;;;19.27;4.95;;;11.40;88.30;;;;;;5051668;28;20041;-72
2023/01/01 12:12:27;;;;;;;25.60;5.32;;;11.50;88.10;;;;;;5051899;28;20128;-74
2023/01/01 12:15:04;;;;;;;21.02;5.05;;;11.50;87.70;;;;;;5051213;28;20048;-72
2023/01/01 12:17:36;;;;;;;21.25;6.63;;;11.50;88.10;;;;;;5051630;28;20048;-71
2023/01/01 12:20:24;;;;;;;18.63;5.57;;;11.50;88.00;;;;;;5051841;28;20040;-73
2023/01/01 12:22:50;;;;;;;27.73;8.98;;;11.60;87.50;;;;;;5034446;28;20063;-71
2023/01/01 12:25:18;;;;;;;16.80;4.65;;;11.70;87.50;;;;;;5035239;28;20135;-76
2023/01/01 12:28:05;;;;;;;23.98;6.03;;;11.70;87.40;;;;;;5051513;28;20049;-74
2023/01/01 12:30:39;;;;;;;23.85;4.40;;;11.80;87.40;;;;;;5051407;28;20049;-74
2023/01/01 12:33:28;;;;;;;18.45;5.25;;;11.90;87.10;;;;;;5051447;28;20405;-75
2023/01/01 12:36:18;;;;;;;15.68;5.13;;;11.90;86.80;;;;;;5051478;28;20044;-72
2023/01/01 12:39:19;;;;;;;15.43;4.97;;;12.00;86.80;;;;;;5051715;28;20532;-73
2023/01/01 12:42:32;;;;;;;13.80;3.50;;;11.90;86.60;;;;;;5051331;28;20114;-74
2023/01/01 12:45:31;;;;;;;15.52;4.30;;;12.00;86.50;;;;;;5051346;28;20481;-74
2023/01/01 12:48:16;;;;;;;21.15;5.57;;;11.90;86.70;;;;;;5068496;28;20110;-74
2023/01/01 12:50:55;;;;;;;15.82;4.15;;;12.00;86.60;;;;;;5069789;28;20044;-74
2023/01/01 12:53:48;;;;;;;18.65;4.65;;;11.90;86.70;;;;;;5069399;28;20476;-72
2023/01/01 12:56:47;;;;;;;21.15;4.40;;;11.80;87.10;;;;;;5068046;28;20107;-74
2023/01/01 12:59:22;;;;;;;18.08;3.63;;;11.80;87.00;;;;;;5069159;28;20464;-74
2023/01/01 13:01:52;;;;;;;20.17;4.50;;;11.70;87.20;;;;;;5065933;28;20504;-74
2023/01/01 13:04:20;;;;;;;15.77;3.55;;;11.80;87.30;;;;;;5069927;28;20045;-73